createdAt,value
2023-05-05T00:01:11.894Z,101704.75
2023-05-05T00:03:40.124Z,101696.75
2023-05-05T00:06:08.048Z,101698.41
2023-05-05T00:08:35.695Z,101692.50
2023-05-05T00:11:03.288Z,101692.22
2023-05-05T00:13:31.159Z,101694.88
2023-05-05T00:15:58.727Z,101691.94
2023-05-05T00:18:28.176Z,101690.84
2023-05-05T00:20:55.840Z,101687.81
2023-05-05T00:23:23.379Z,101685.88
2023-05-05T00:25:51.067Z,101682.44
2023-05-05T00:28:18.717Z,101682.28
2023-05-05T00:30:46.292Z,101682.19
2023-05-05T00:33:13.932Z,101677.88
2023-05-05T00:35:43.145Z,101678.88
2023-05-05T00:38:10.720Z,101673.91
2023-05-05T00:40:38.429Z,101674.25
2023-05-05T00:43:06.144Z,101671.69
2023-05-05T00:45:33.706Z,101672.59
2023-05-05T00:48:02.060Z,101664.19
2023-05-05T00:50:30.852Z,101670.00
2023-05-05T00:53:02.528Z,101673.06
2023-05-05T00:55:31.057Z,101671.97
2023-05-05T00:57:59.434Z,101673.31
2023-05-05T01:00:27.684Z,101670.00
2023-05-05T01:02:56.480Z,101673.03
2023-05-05T01:05:25.734Z,101663.56
2023-05-05T01:08:08.030Z,101668.53
2023-05-05T01:10:39.210Z,101667.91
2023-05-05T01:13:21.462Z,101656.28
2023-05-05T01:15:53.350Z,101660.66
2023-05-05T01:18:30.771Z,101660.22
2023-05-05T01:21:06.049Z,101654.97
2023-05-05T01:24:00.222Z,101656.56
2023-05-05T01:26:45.116Z,101653.06
2023-05-05T01:29:39.333Z,101644.97
2023-05-05T01:32:11.708Z,101650.47
2023-05-05T01:34:45.112Z,101649.28
2023-05-05T01:37:19.413Z,101655.25
2023-05-05T01:39:52.164Z,101652.84
2023-05-05T01:42:22.209Z,101653.94
2023-05-05T01:44:52.964Z,101649.44
2023-05-05T01:47:24.063Z,101657.09
2023-05-05T01:49:53.640Z,101651.63
2023-05-05T01:52:22.647Z,101653.56
2023-05-05T01:54:51.517Z,101649.44
2023-05-05T01:57:21.508Z,101648.53
2023-05-05T01:59:51.821Z,101639.28
2023-05-05T02:02:21.817Z,101637.56
2023-05-05T02:04:53.254Z,101637.94
2023-05-05T02:07:22.414Z,101638.75
2023-05-05T02:09:49.955Z,101642.75
2023-05-05T02:12:20.173Z,101640.56
2023-05-05T02:14:49.031Z,101633.41
2023-05-05T02:17:17.933Z,101633.97
2023-05-05T02:19:46.881Z,101631.66
2023-05-05T02:22:16.773Z,101627.38
2023-05-05T02:24:44.773Z,101631.00
2023-05-05T02:27:13.165Z,101627.75
2023-05-05T02:29:48.552Z,101621.06
2023-05-05T02:32:21.371Z,101620.06
2023-05-05T02:34:51.361Z,101606.91
2023-05-05T02:37:24.109Z,101603.94
2023-05-05T02:40:04.518Z,101605.31
2023-05-05T02:42:38.131Z,101616.50
2023-05-05T02:45:13.660Z,101601.88
2023-05-05T02:47:44.446Z,101602.53
2023-05-05T02:50:12.777Z,101607.00
2023-05-05T02:52:48.516Z,101608.81
2023-05-05T02:55:17.490Z,101609.47
2023-05-05T02:57:50.874Z,101599.00
2023-05-05T03:00:24.870Z,101595.31
2023-05-05T03:03:05.826Z,101595.13
2023-05-05T03:05:42.571Z,101601.00
2023-05-05T03:08:16.986Z,101593.66
2023-05-05T03:10:48.751Z,101596.50
2023-05-05T03:13:19.482Z,101585.88
2023-05-05T03:15:50.148Z,101589.38
2023-05-05T03:18:23.495Z,101583.06
2023-05-05T03:20:58.027Z,101585.63
2023-05-05T03:23:27.074Z,101583.44
2023-05-05T03:25:58.889Z,101584.91
2023-05-05T03:28:40.279Z,101579.78
2023-05-05T03:31:15.888Z,101580.13
2023-05-05T03:33:43.670Z,101583.44
2023-05-05T03:36:11.452Z,101578.47
2023-05-05T03:38:41.080Z,101581.47
2023-05-05T03:41:09.725Z,101577.81
2023-05-05T03:43:39.177Z,101582.84
2023-05-05T03:46:07.678Z,101584.97
2023-05-05T03:48:35.437Z,101569.13
2023-05-05T03:51:03.298Z,101566.88
2023-05-05T03:53:33.281Z,101564.91
2023-05-05T03:56:04.985Z,101559.38
2023-05-05T03:58:32.569Z,101570.22
2023-05-05T04:01:00.299Z,101569.09
2023-05-05T04:03:27.955Z,101576.22
2023-05-05T04:05:55.786Z,101569.88
2023-05-05T04:08:23.411Z,101577.53
2023-05-05T04:10:51.554Z,101577.53
2023-05-05T04:13:20.504Z,101581.53
2023-05-05T04:15:49.417Z,101578.94
2023-05-05T04:18:18.477Z,101579.88
2023-05-05T04:20:46.605Z,101581.59
2023-05-05T04:23:14.430Z,101573.19
2023-05-05T04:25:42.384Z,101579.66
2023-05-05T04:28:11.083Z,101582.50
2023-05-05T04:30:40.475Z,101580.84
2023-05-05T04:33:08.258Z,101578.09
2023-05-05T04:35:36.346Z,101580.13
2023-05-05T04:38:04.115Z,101576.41
2023-05-05T04:40:32.077Z,101580.13
2023-05-05T04:43:00.196Z,101575.72
2023-05-05T04:45:27.834Z,101580.25
2023-05-05T04:47:57.167Z,101580.00
2023-05-05T04:50:24.882Z,101591.63
2023-05-05T04:52:52.854Z,101591.97
2023-05-05T04:55:20.740Z,101573.41
2023-05-05T04:57:48.313Z,101571.38
2023-05-05T05:00:16.259Z,101585.53
2023-05-05T05:02:43.906Z,101593.31
2023-05-05T05:05:12.916Z,101592.84
2023-05-05T05:07:40.761Z,101594.06
2023-05-05T05:10:09.471Z,101588.75
2023-05-05T05:12:37.671Z,101603.47
2023-05-05T05:15:06.294Z,101596.34
2023-05-05T05:17:33.902Z,101590.00
2023-05-05T05:20:04.709Z,101576.19
2023-05-05T05:22:38.189Z,101565.41
2023-05-05T05:25:08.836Z,101571.59
2023-05-05T05:27:36.423Z,101581.69
2023-05-05T05:30:04.485Z,101575.59
2023-05-05T05:32:33.490Z,101567.19
2023-05-05T05:35:01.564Z,101566.38
2023-05-05T05:37:30.936Z,101561.50
2023-05-05T05:40:00.724Z,101567.44
2023-05-05T05:42:31.478Z,101575.25
2023-05-05T05:44:59.773Z,101572.31
2023-05-05T05:47:28.014Z,101582.53
2023-05-05T05:49:56.777Z,101578.03
2023-05-05T05:52:24.350Z,101579.97
2023-05-05T05:54:52.427Z,101582.91
2023-05-05T05:57:22.367Z,101588.63
2023-05-05T05:59:50.425Z,101585.25
2023-05-05T06:02:19.102Z,101575.69
2023-05-05T06:04:47.093Z,101580.84
2023-05-05T06:07:15.243Z,101574.22
2023-05-05T06:09:43.025Z,101576.16
2023-05-05T06:12:10.733Z,101574.88
2023-05-05T06:14:39.681Z,101566.47
2023-05-05T06:17:07.416Z,101567.13
2023-05-05T06:19:39.211Z,101568.94
2023-05-05T06:22:06.834Z,101576.03
2023-05-05T06:24:35.346Z,101563.72
2023-05-05T06:27:03.573Z,101563.97
2023-05-05T06:29:31.128Z,101560.25
2023-05-05T06:32:01.117Z,101566.22
2023-05-05T06:34:28.645Z,101561.78
2023-05-05T06:36:56.166Z,101556.81
2023-05-05T06:39:23.718Z,101555.44
2023-05-05T06:41:51.270Z,101569.13
2023-05-05T06:44:18.821Z,101563.31
2023-05-05T06:46:46.411Z,101562.50
2023-05-05T06:49:15.383Z,101564.00
2023-05-05T06:51:43.085Z,101574.59
2023-05-05T06:54:10.724Z,101574.50
2023-05-05T06:56:38.234Z,101576.41
2023-05-05T06:59:05.734Z,101575.28
2023-05-05T07:01:33.254Z,101579.19
2023-05-05T07:04:01.155Z,101564.22
2023-05-05T07:06:30.138Z,101569.63
2023-05-05T07:08:57.861Z,101560.56
2023-05-05T07:11:25.620Z,101547.84
2023-05-05T07:13:53.166Z,101552.81
2023-05-05T07:16:20.794Z,101563.00
2023-05-05T07:18:48.321Z,101581.81
2023-05-05T07:21:15.845Z,101589.28
2023-05-05T07:23:47.574Z,101591.56
2023-05-05T07:26:15.409Z,101581.41
2023-05-05T07:28:43.877Z,101583.44
2023-05-05T07:31:11.439Z,101575.16
2023-05-05T07:33:39.029Z,101574.59
2023-05-05T07:36:06.916Z,101573.53
2023-05-05T07:38:34.616Z,101576.03
2023-05-05T07:41:03.927Z,101574.31
2023-05-05T07:43:31.556Z,101596.63
2023-05-05T07:45:59.243Z,101607.72
2023-05-05T07:48:28.186Z,101605.31
2023-05-05T07:50:55.824Z,101601.41
2023-05-05T07:53:23.399Z,101609.06
2023-05-05T07:55:51.141Z,101613.84
2023-05-05T07:58:19.992Z,101625.19
2023-05-05T08:00:49.131Z,101610.56
2023-05-05T08:03:16.780Z,101613.28
2023-05-05T08:05:44.325Z,101615.56
2023-05-05T08:08:11.917Z,101626.25
2023-05-05T08:10:39.477Z,101617.38
2023-05-05T08:13:07.128Z,101621.91
2023-05-05T08:15:36.036Z,101617.16
2023-05-05T08:18:03.603Z,101631.44
2023-05-05T08:20:31.277Z,101629.00
2023-05-05T08:22:58.849Z,101626.94
2023-05-05T08:25:27.054Z,101625.28
2023-05-05T08:27:54.857Z,101629.81
2023-05-05T08:30:22.440Z,101622.19
2023-05-05T08:32:51.434Z,101626.13
2023-05-05T08:35:19.198Z,101624.44
2023-05-05T08:37:46.763Z,101612.84
2023-05-05T08:40:15.177Z,101612.69
2023-05-05T08:42:44.492Z,101605.59
2023-05-05T08:45:12.392Z,101605.25
2023-05-05T08:47:40.472Z,101599.88
2023-05-05T08:50:11.695Z,101595.66
2023-05-05T08:52:41.236Z,101586.84
2023-05-05T08:55:16.176Z,101571.69
2023-05-05T08:57:51.441Z,101576.94
2023-05-05T09:00:19.992Z,101572.78
2023-05-05T09:02:48.601Z,101569.03
2023-05-05T09:05:18.006Z,101575.91
2023-05-05T09:07:47.103Z,101570.69
2023-05-05T09:10:14.664Z,101569.59
2023-05-05T09:12:42.568Z,101562.63
2023-05-05T09:15:12.013Z,101559.41
2023-05-05T09:17:40.142Z,101566.88
2023-05-05T09:20:10.001Z,101567.03
2023-05-05T09:22:39.819Z,101562.53
2023-05-05T09:25:09.745Z,101564.69
2023-05-05T09:27:38.252Z,101568.66
2023-05-05T09:30:07.000Z,101560.66
2023-05-05T09:32:44.839Z,101568.84
2023-05-05T09:35:12.637Z,101562.00
2023-05-05T09:37:41.888Z,101558.09
2023-05-05T09:40:10.811Z,101559.47
2023-05-05T09:42:39.356Z,101550.53
2023-05-05T09:45:25.859Z,101544.06
2023-05-05T09:47:59.229Z,101539.75
2023-05-05T09:50:30.541Z,101538.53
2023-05-05T09:53:01.187Z,101536.19
2023-05-05T09:55:30.740Z,101539.53
2023-05-05T09:57:58.355Z,101542.56
2023-05-05T10:00:38.778Z,101541.78
2023-05-05T10:03:06.515Z,101527.53
2023-05-05T10:05:34.359Z,101516.22
2023-05-05T10:08:13.779Z,101507.50
2023-05-05T10:10:48.281Z,101518.09
2023-05-05T10:13:19.051Z,101520.34
2023-05-05T10:15:48.166Z,101515.78
2023-05-05T10:18:16.983Z,101518.81
2023-05-05T10:20:46.525Z,101515.47
2023-05-05T10:23:19.301Z,101518.94
2023-05-05T10:25:52.977Z,101513.53
2023-05-05T10:28:27.893Z,101519.50
2023-05-05T10:30:59.242Z,101521.09
2023-05-05T10:33:35.129Z,101528.00
2023-05-05T10:36:06.528Z,101533.69
2023-05-05T10:38:36.876Z,101524.38
2023-05-05T10:41:04.902Z,101529.50
2023-05-05T10:43:32.497Z,101530.88
2023-05-05T10:46:01.342Z,101535.94
2023-05-05T10:48:35.470Z,101526.72
2023-05-05T10:51:31.136Z,101531.38
2023-05-05T10:54:13.649Z,101535.81
2023-05-05T10:56:42.793Z,101543.44
2023-05-05T10:59:40.892Z,101542.16
2023-05-05T11:02:28.303Z,101545.38
2023-05-05T11:05:21.324Z,101542.84
2023-05-05T11:07:50.200Z,101542.16
2023-05-05T11:10:22.896Z,101526.47
2023-05-05T11:13:19.802Z,101531.06
2023-05-05T11:15:48.024Z,101509.44
2023-05-05T11:18:36.383Z,101508.69
2023-05-05T11:21:18.277Z,101490.94
2023-05-05T11:23:48.398Z,101485.69
2023-05-05T11:26:19.278Z,101491.19
2023-05-05T11:29:02.030Z,101477.22
2023-05-05T11:31:30.571Z,101484.84
2023-05-05T11:34:36.978Z,101483.56
2023-05-05T11:37:08.814Z,101468.56
2023-05-05T11:39:43.619Z,101478.22
2023-05-05T11:42:26.037Z,101484.84
2023-05-05T11:44:54.478Z,101479.09
2023-05-05T11:47:27.313Z,101478.53
2023-05-05T11:49:55.499Z,101479.53
2023-05-05T11:52:26.266Z,101473.13
2023-05-05T11:54:53.930Z,101478.53
2023-05-05T11:57:29.760Z,101479.47
2023-05-05T11:59:59.472Z,101476.53
2023-05-05T12:02:29.556Z,101478.19
2023-05-05T12:04:58.031Z,101471.28
2023-05-05T12:07:26.839Z,101470.53
2023-05-05T12:09:55.067Z,101474.06
2023-05-05T12:12:35.439Z,101450.59
2023-05-05T12:15:03.261Z,101454.34
2023-05-05T12:17:38.646Z,101460.09
2023-05-05T12:20:07.343Z,101453.94
2023-05-05T12:22:35.220Z,101456.44
2023-05-05T12:25:04.682Z,101455.50
2023-05-05T12:27:33.599Z,101461.22
2023-05-05T12:30:13.137Z,101458.53
2023-05-05T12:32:41.398Z,101463.31
2023-05-05T12:35:10.569Z,101461.00
2023-05-05T12:37:38.954Z,101460.28
2023-05-05T12:40:08.972Z,101462.38
2023-05-05T12:42:41.903Z,101466.22
2023-05-05T12:45:17.950Z,101451.78
2023-05-05T12:47:45.531Z,101450.97
2023-05-05T12:50:13.247Z,101447.88
2023-05-05T12:52:43.751Z,101454.88
2023-05-05T12:55:11.911Z,101447.28
2023-05-05T12:58:00.346Z,101451.00
2023-05-05T13:00:29.224Z,101450.44
2023-05-05T13:02:57.472Z,101460.44
2023-05-05T13:05:32.537Z,101465.13
2023-05-05T13:08:00.447Z,101449.34
2023-05-05T13:10:28.218Z,101450.94
2023-05-05T13:12:57.790Z,101451.75
2023-05-05T13:15:25.822Z,101441.50
2023-05-05T13:17:59.964Z,101449.09
2023-05-05T13:20:27.762Z,101442.13
2023-05-05T13:22:55.449Z,101440.22
2023-05-05T13:25:23.053Z,101434.25
2023-05-05T13:27:50.632Z,101440.63
2023-05-05T13:30:20.556Z,101439.19
2023-05-05T13:32:48.167Z,101442.00
2023-05-05T13:35:16.591Z,101441.09
2023-05-05T13:37:45.894Z,101442.66
2023-05-05T13:40:14.498Z,101433.41
2023-05-05T13:42:42.095Z,101423.59
2023-05-05T13:45:10.652Z,101419.00
2023-05-05T13:47:40.833Z,101425.25
2023-05-05T13:50:09.030Z,101415.94
2023-05-05T13:52:37.332Z,101425.94
2023-05-05T13:55:05.933Z,101408.47
2023-05-05T13:57:33.591Z,101413.81
2023-05-05T14:00:01.170Z,101417.06
2023-05-05T14:02:28.741Z,101409.97
2023-05-05T14:04:57.667Z,101401.38
2023-05-05T14:07:25.231Z,101395.97
2023-05-05T14:09:52.776Z,101396.47
2023-05-05T14:12:20.427Z,101390.75
2023-05-05T14:14:47.990Z,101384.16
2023-05-05T14:17:15.731Z,101393.91
2023-05-05T14:19:44.338Z,101394.38
2023-05-05T14:22:13.237Z,101392.13
2023-05-05T14:24:40.909Z,101400.31
2023-05-05T14:27:08.596Z,101392.63
2023-05-05T14:29:36.106Z,101395.25
2023-05-05T14:32:03.758Z,101409.38
2023-05-05T14:34:31.456Z,101399.59
2023-05-05T14:36:59.001Z,101403.25
2023-05-05T14:39:27.885Z,101397.63
2023-05-05T14:41:55.432Z,101393.25
2023-05-05T14:44:23.012Z,101401.91
2023-05-05T14:46:51.253Z,101398.22
2023-05-05T14:49:18.854Z,101390.13
2023-05-05T14:51:46.385Z,101377.00
2023-05-05T14:54:26.905Z,101375.59
2023-05-05T14:56:58.237Z,101382.50
2023-05-05T14:59:26.195Z,101378.81
2023-05-05T15:01:53.853Z,101387.09
2023-05-05T15:04:21.482Z,101381.13
2023-05-05T15:06:49.080Z,101387.53
2023-05-05T15:09:18.012Z,101391.03
2023-05-05T15:11:45.973Z,101378.38
2023-05-05T15:14:14.903Z,101384.06
2023-05-05T15:16:42.482Z,101381.00
2023-05-05T15:19:10.078Z,101379.59
2023-05-05T15:21:37.625Z,101368.81
2023-05-05T15:24:05.879Z,101376.31
2023-05-05T15:26:33.465Z,101374.56
2023-05-05T15:29:01.011Z,101372.34
2023-05-05T15:31:29.967Z,101367.09
2023-05-05T15:33:57.535Z,101364.63
2023-05-05T15:36:25.078Z,101349.19
2023-05-05T15:38:52.719Z,101363.09
2023-05-05T15:41:20.485Z,101352.66
2023-05-05T15:43:47.989Z,101357.00
2023-05-05T15:46:15.612Z,101371.31
2023-05-05T15:48:44.490Z,101352.22
2023-05-05T15:51:12.496Z,101359.00
2023-05-05T15:53:40.013Z,101357.00
2023-05-05T15:56:07.924Z,101356.00
2023-05-05T15:58:36.607Z,101359.03
2023-05-05T16:01:04.293Z,101360.97
2023-05-05T16:03:31.956Z,101352.09
2023-05-05T16:06:00.920Z,101347.59
2023-05-05T16:08:29.039Z,101342.09
2023-05-05T16:10:56.855Z,101346.38
2023-05-05T16:13:24.418Z,101341.88
2023-05-05T16:15:52.080Z,101346.63
2023-05-05T16:18:19.615Z,101351.44
2023-05-05T16:20:47.240Z,101349.34
2023-05-05T16:23:16.263Z,101351.13
2023-05-05T16:25:43.769Z,101346.59
2023-05-05T16:28:11.329Z,101338.41
2023-05-05T16:30:39.768Z,101343.78
2023-05-05T16:33:07.547Z,101339.88
2023-05-05T16:35:36.078Z,101351.69
2023-05-05T16:38:03.695Z,101352.75
2023-05-05T16:40:32.627Z,101358.13
2023-05-05T16:43:00.189Z,101360.41
2023-05-05T16:45:27.713Z,101362.31
2023-05-05T16:47:56.076Z,101366.88
2023-05-05T16:50:23.828Z,101361.75
2023-05-05T16:52:51.625Z,101374.84
2023-05-05T16:55:19.519Z,101368.41
2023-05-05T16:57:48.482Z,101388.44
2023-05-05T17:00:16.457Z,101374.16
2023-05-05T17:02:44.030Z,101380.38
2023-05-05T17:05:11.817Z,101364.28
2023-05-05T17:07:39.698Z,101379.97
2023-05-05T17:10:08.712Z,101381.81
2023-05-05T17:12:36.334Z,101375.00
2023-05-05T17:15:06.059Z,101377.31
2023-05-05T17:17:33.696Z,101377.13
2023-05-05T17:20:03.006Z,101375.88
2023-05-05T17:22:30.577Z,101362.91
2023-05-05T17:24:58.131Z,101359.63
2023-05-05T17:27:25.763Z,101370.94
2023-05-05T17:29:53.663Z,101369.09
2023-05-05T17:32:22.592Z,101349.31
2023-05-05T17:34:50.168Z,101349.09
2023-05-05T17:37:17.680Z,101355.31
2023-05-05T17:39:45.256Z,101355.50
2023-05-05T17:42:12.794Z,101354.91
2023-05-05T17:44:40.338Z,101359.03
2023-05-05T17:47:08.555Z,101359.44
2023-05-05T17:49:37.411Z,101357.78
2023-05-05T17:52:05.406Z,101346.88
2023-05-05T17:54:33.022Z,101364.44
2023-05-05T17:57:00.545Z,101367.75
2023-05-05T17:59:28.107Z,101373.28
2023-05-05T18:01:55.673Z,101373.09
2023-05-05T18:04:23.804Z,101384.25
2023-05-05T18:06:55.600Z,101379.28
2023-05-05T18:09:23.555Z,101386.69
2023-05-05T18:11:53.005Z,101390.81
2023-05-05T18:14:21.135Z,101395.41
2023-05-05T18:16:50.281Z,101410.06
2023-05-05T18:19:19.233Z,101406.16
2023-05-05T18:21:46.890Z,101418.09
2023-05-05T18:24:20.276Z,101418.53
2023-05-05T18:26:49.881Z,101415.00
2023-05-05T18:29:18.550Z,101419.97
2023-05-05T18:31:48.332Z,101411.28
2023-05-05T18:34:16.884Z,101421.81
2023-05-05T18:36:44.546Z,101419.28
2023-05-05T18:39:12.254Z,101422.16
2023-05-05T18:41:41.190Z,101429.94
2023-05-05T18:44:08.781Z,101428.47
2023-05-05T18:46:36.434Z,101431.75
2023-05-05T18:49:04.496Z,101440.44
2023-05-05T18:51:32.152Z,101434.78
2023-05-05T18:54:00.827Z,101444.72
2023-05-05T18:56:28.770Z,101440.56
2023-05-05T18:58:57.697Z,101451.41
2023-05-05T19:01:25.264Z,101453.16
2023-05-05T19:03:52.926Z,101456.25
2023-05-05T19:06:20.492Z,101457.66
2023-05-05T19:08:48.043Z,101462.63
2023-05-05T19:11:15.617Z,101460.06
2023-05-05T19:13:43.297Z,101461.63
2023-05-05T19:16:12.539Z,101473.94
2023-05-05T19:18:40.350Z,101466.53
2023-05-05T19:21:08.014Z,101473.38
2023-05-05T19:23:36.051Z,101478.22
2023-05-05T19:26:05.535Z,101474.34
2023-05-05T19:28:33.175Z,101481.97
2023-05-05T19:31:00.732Z,101472.78
2023-05-05T19:33:29.753Z,101484.81
2023-05-05T19:35:57.475Z,101479.72
2023-05-05T19:38:25.001Z,101474.31
2023-05-05T19:40:53.983Z,101474.56
2023-05-05T19:43:22.151Z,101478.28
2023-05-05T19:45:49.834Z,101467.97
2023-05-05T19:48:17.385Z,101470.09
2023-05-05T19:50:46.443Z,101468.19
2023-05-05T19:53:14.200Z,101468.69
2023-05-05T19:55:41.788Z,101460.69
2023-05-05T19:58:09.311Z,101455.59
2023-05-05T20:00:36.948Z,101468.19
2023-05-05T20:03:04.727Z,101456.25
2023-05-05T20:05:32.380Z,101453.44
2023-05-05T20:08:01.330Z,101444.13
2023-05-05T20:10:28.860Z,101453.13
2023-05-05T20:12:56.521Z,101448.34
2023-05-05T20:15:24.111Z,101448.09
2023-05-05T20:17:51.670Z,101444.50
2023-05-05T20:20:21.757Z,101440.47
2023-05-05T20:22:50.382Z,101430.03
2023-05-05T20:25:19.240Z,101422.97
2023-05-05T20:27:46.772Z,101434.53
2023-05-05T20:30:14.483Z,101430.03
2023-05-05T20:32:42.324Z,101422.41
2023-05-05T20:35:12.266Z,101427.06
2023-05-05T20:37:39.835Z,101423.44
2023-05-05T20:40:09.049Z,101416.44
2023-05-05T20:42:38.204Z,101412.56
2023-05-05T20:45:06.948Z,101403.84
2023-05-05T20:47:35.201Z,101397.66
2023-05-05T20:50:02.849Z,101390.69
2023-05-05T20:52:30.524Z,101397.66
2023-05-05T20:54:58.127Z,101396.66
2023-05-05T20:57:26.062Z,101399.34
2023-05-05T20:59:55.042Z,101392.44
2023-05-05T21:02:22.605Z,101400.72
2023-05-05T21:04:50.361Z,101390.34
2023-05-05T21:07:17.914Z,101387.69
2023-05-05T21:09:47.108Z,101385.41
2023-05-05T21:12:14.629Z,101383.75
2023-05-05T21:14:44.031Z,101370.97
2023-05-05T21:17:12.990Z,101371.53
2023-05-05T21:19:41.131Z,101368.50
2023-05-05T21:22:08.689Z,101371.44
2023-05-05T21:24:36.221Z,101379.63
2023-05-05T21:27:03.790Z,101384.97
2023-05-05T21:29:34.233Z,101377.97
2023-05-05T21:32:01.957Z,101384.50
2023-05-05T21:34:30.929Z,101386.41
2023-05-05T21:36:59.046Z,101383.03
2023-05-05T21:39:26.778Z,101392.53
2023-05-05T21:41:54.760Z,101391.59
2023-05-05T21:44:22.343Z,101387.56
2023-05-05T21:46:49.913Z,101374.97
2023-05-05T21:49:18.620Z,101377.28
2023-05-05T21:51:47.558Z,101377.81
2023-05-05T21:54:15.158Z,101375.97
2023-05-05T21:56:42.979Z,101374.78
2023-05-05T21:59:10.966Z,101377.38
2023-05-05T22:01:38.584Z,101383.06
2023-05-05T22:04:07.424Z,101388.31
2023-05-05T22:06:35.107Z,101395.19
2023-05-05T22:09:04.052Z,101391.41
2023-05-05T22:11:31.649Z,101396.75
2023-05-05T22:13:59.165Z,101402.25
2023-05-05T22:16:26.729Z,101402.81
2023-05-05T22:18:54.324Z,101401.75
2023-05-05T22:21:22.161Z,101394.09
2023-05-05T22:23:49.768Z,101399.13
2023-05-05T22:26:18.674Z,101402.06
2023-05-05T22:28:46.282Z,101404.06
2023-05-05T22:31:13.860Z,101404.16
2023-05-05T22:33:41.445Z,101407.41
2023-05-05T22:36:09.983Z,101408.75
2023-05-05T22:38:37.637Z,101407.41
2023-05-05T22:41:07.294Z,101410.13
2023-05-05T22:43:36.724Z,101405.38
2023-05-05T22:46:04.228Z,101408.41
2023-05-05T22:48:31.758Z,101403.72
2023-05-05T22:50:59.779Z,101411.41
2023-05-05T22:53:27.323Z,101403.34
2023-05-05T22:55:55.059Z,101408.66
2023-05-05T22:58:22.870Z,101404.44
2023-05-05T23:00:51.779Z,101406.44
2023-05-05T23:03:19.385Z,101408.56
2023-05-05T23:05:46.936Z,101407.28
2023-05-05T23:08:14.490Z,101400.41
2023-05-05T23:10:41.994Z,101401.75
2023-05-05T23:13:09.610Z,101408.47
2023-05-05T23:15:37.221Z,101402.47
2023-05-05T23:18:06.249Z,101399.47
2023-05-05T23:20:33.904Z,101392.41
2023-05-05T23:23:01.467Z,101405.47
2023-05-05T23:25:29.051Z,101388.56
2023-05-05T23:27:56.607Z,101400.19
2023-05-05T23:30:24.156Z,101397.06
2023-05-05T23:32:51.712Z,101401.56
2023-05-05T23:35:21.356Z,101395.56
2023-05-05T23:37:48.925Z,101395.88
2023-05-05T23:40:16.484Z,101397.34
2023-05-05T23:42:44.014Z,101399.00
2023-05-05T23:45:12.217Z,101396.16
2023-05-05T23:47:40.045Z,101409.75
2023-05-05T23:50:08.964Z,101400.84
2023-05-05T23:52:37.818Z,101401.69
2023-05-05T23:55:06.738Z,101401.59
2023-05-05T23:57:35.174Z,101405.47
